createdAt,value
2023-05-04T00:02:25.092Z,6.17
2023-05-04T00:04:52.497Z,6.06
2023-05-04T00:07:19.914Z,6.11
2023-05-04T00:09:46.538Z,6.08
2023-05-04T00:12:13.046Z,6.11
2023-05-04T00:14:39.439Z,6.06
2023-05-04T00:17:07.898Z,6.01
2023-05-04T00:19:40.187Z,5.98
2023-05-04T00:22:07.046Z,6.01
2023-05-04T00:24:33.784Z,6.01
2023-05-04T00:27:00.469Z,5.98
2023-05-04T00:29:26.921Z,5.95
2023-05-04T00:31:53.701Z,5.90
2023-05-04T00:34:20.105Z,5.83
2023-05-04T00:36:47.140Z,5.81
2023-05-04T00:39:13.786Z,5.82
2023-05-04T00:41:40.905Z,5.77
2023-05-04T00:44:07.779Z,5.77
2023-05-04T00:46:37.102Z,5.74
2023-05-04T00:49:03.982Z,5.58
2023-05-04T00:51:30.946Z,5.60
2023-05-04T00:53:58.328Z,5.61
2023-05-04T00:56:25.830Z,5.60
2023-05-04T00:58:54.399Z,5.60
2023-05-04T01:01:22.572Z,5.52
2023-05-04T01:03:53.659Z,5.49
2023-05-04T01:06:34.763Z,5.49
2023-05-04T01:09:19.304Z,5.47
2023-05-04T01:11:51.925Z,5.50
2023-05-04T01:14:20.514Z,5.48
2023-05-04T01:16:47.452Z,5.41
2023-05-04T01:19:14.779Z,5.32
2023-05-04T01:21:41.599Z,5.28
2023-05-04T01:24:08.024Z,5.14
2023-05-04T01:26:39.347Z,5.22
2023-05-04T01:29:18.118Z,5.24
2023-05-04T01:31:46.435Z,5.23
2023-05-04T01:34:14.111Z,5.26
2023-05-04T01:36:41.625Z,5.21
2023-05-04T01:39:09.672Z,5.20
2023-05-04T01:41:36.818Z,5.20
2023-05-04T01:44:04.419Z,5.15
2023-05-04T01:46:31.056Z,5.07
2023-05-04T01:48:57.565Z,5.04
2023-05-04T01:51:24.344Z,5.03
2023-05-04T01:53:50.872Z,4.97
2023-05-04T01:56:17.585Z,4.91
2023-05-04T01:58:44.697Z,4.84
2023-05-04T02:01:11.304Z,4.88
2023-05-04T02:03:38.118Z,4.92
2023-05-04T02:06:04.660Z,4.95
2023-05-04T02:08:31.223Z,4.96
2023-05-04T02:10:57.668Z,4.92
2023-05-04T02:13:24.174Z,4.87
2023-05-04T02:15:50.667Z,4.88
2023-05-04T02:18:17.338Z,4.81
2023-05-04T02:20:43.762Z,4.80
2023-05-04T02:23:10.180Z,4.80
2023-05-04T02:25:40.384Z,4.82
2023-05-04T02:28:08.983Z,4.79
2023-05-04T02:30:37.268Z,4.74
2023-05-04T02:33:04.380Z,4.61
2023-05-04T02:35:31.127Z,4.59
2023-05-04T02:37:58.097Z,4.57
2023-05-04T02:40:24.665Z,4.63
2023-05-04T02:42:51.240Z,4.62
2023-05-04T02:45:17.842Z,4.63
2023-05-04T02:47:44.579Z,4.58
2023-05-04T02:50:11.211Z,4.56
2023-05-04T02:52:37.703Z,4.47
2023-05-04T02:55:04.487Z,4.50
2023-05-04T02:57:31.317Z,4.54
2023-05-04T02:59:57.917Z,4.50
2023-05-04T03:02:24.448Z,4.50
2023-05-04T03:04:50.953Z,4.42
2023-05-04T03:07:17.656Z,4.43
2023-05-04T03:09:46.777Z,4.47
2023-05-04T03:12:14.184Z,4.38
2023-05-04T03:14:41.994Z,4.36
2023-05-04T03:17:08.647Z,4.38
2023-05-04T03:19:35.700Z,4.35
2023-05-04T03:22:04.467Z,4.34
2023-05-04T03:24:30.948Z,4.34
2023-05-04T03:26:57.877Z,4.39
2023-05-04T03:29:24.678Z,4.35
2023-05-04T03:31:51.625Z,4.36
2023-05-04T03:34:21.383Z,4.35
2023-05-04T03:36:50.300Z,4.31
2023-05-04T03:39:19.580Z,4.24
2023-05-04T03:41:46.233Z,4.30
2023-05-04T03:44:12.685Z,4.36
2023-05-04T03:46:39.406Z,4.36
2023-05-04T03:49:05.951Z,4.38
2023-05-04T03:51:32.539Z,4.37
2023-05-04T03:53:59.013Z,4.34
2023-05-04T03:56:25.736Z,4.36
2023-05-04T03:58:52.177Z,4.34
2023-05-04T04:01:22.562Z,4.39
2023-05-04T04:03:49.291Z,4.42
2023-05-04T04:06:17.630Z,4.40
2023-05-04T04:08:45.836Z,4.46
2023-05-04T04:11:12.377Z,4.47
2023-05-04T04:13:38.825Z,4.44
2023-05-04T04:16:05.675Z,4.49
2023-05-04T04:18:32.603Z,4.48
2023-05-04T04:20:59.101Z,4.46
2023-05-04T04:23:25.547Z,4.41
2023-05-04T04:25:53.807Z,4.52
2023-05-04T04:28:20.290Z,4.67
2023-05-04T04:30:46.692Z,4.73
2023-05-04T04:33:13.162Z,4.83
2023-05-04T04:35:39.737Z,4.94
2023-05-04T04:38:06.959Z,5.03
2023-05-04T04:40:33.371Z,5.15
2023-05-04T04:42:59.810Z,5.12
2023-05-04T04:45:26.311Z,5.17
2023-05-04T04:47:53.038Z,5.26
2023-05-04T04:50:19.653Z,5.39
2023-05-04T04:52:46.407Z,5.40
2023-05-04T04:55:13.355Z,5.43
2023-05-04T04:57:39.858Z,5.45
2023-05-04T05:00:10.207Z,5.44
2023-05-04T05:02:37.059Z,5.58
2023-05-04T05:05:03.834Z,5.60
2023-05-04T05:07:30.661Z,5.63
2023-05-04T05:09:57.073Z,5.77
2023-05-04T05:12:23.676Z,5.79
2023-05-04T05:14:50.843Z,5.85
2023-05-04T05:17:18.266Z,5.93
2023-05-04T05:19:44.681Z,6.00
2023-05-04T05:22:11.139Z,6.04
2023-05-04T05:24:37.608Z,6.17
2023-05-04T05:27:04.318Z,6.27
2023-05-04T05:29:31.521Z,6.40
2023-05-04T05:31:57.986Z,6.58
2023-05-04T05:34:24.442Z,6.58
2023-05-04T05:36:50.973Z,6.66
2023-05-04T05:39:17.591Z,6.70
2023-05-04T05:41:44.036Z,6.88
2023-05-04T05:44:12.415Z,7.01
2023-05-04T05:46:40.019Z,7.18
2023-05-04T05:49:07.335Z,7.35
2023-05-04T05:51:33.869Z,7.38
2023-05-04T05:54:00.514Z,7.43
2023-05-04T05:56:27.072Z,7.53
2023-05-04T05:58:53.558Z,7.67
2023-05-04T06:01:20.121Z,7.74
2023-05-04T06:03:46.878Z,7.88
2023-05-04T06:06:13.675Z,8.08
2023-05-04T06:08:40.106Z,8.05
2023-05-04T06:11:06.817Z,8.02
2023-05-04T06:13:33.235Z,8.14
2023-05-04T06:15:59.898Z,8.31
2023-05-04T06:18:26.321Z,8.45
2023-05-04T06:20:58.335Z,8.66
2023-05-04T06:23:26.218Z,8.85
2023-05-04T06:25:52.665Z,9.06
2023-05-04T06:28:19.062Z,9.22
2023-05-04T06:30:45.768Z,9.38
2023-05-04T06:33:12.310Z,9.51
2023-05-04T06:35:38.984Z,9.60
2023-05-04T06:38:05.420Z,9.65
2023-05-04T06:40:31.904Z,9.72
2023-05-04T06:42:58.468Z,9.84
2023-05-04T06:45:25.102Z,9.92
2023-05-04T06:47:52.711Z,10.04
2023-05-04T06:50:19.245Z,10.16
2023-05-04T06:52:46.366Z,10.21
2023-05-04T06:55:13.884Z,10.31
2023-05-04T06:57:40.555Z,10.43
2023-05-04T07:00:08.470Z,10.60
2023-05-04T07:02:34.983Z,10.70
2023-05-04T07:05:02.559Z,10.74
2023-05-04T07:07:29.006Z,10.73
2023-05-04T07:09:55.620Z,10.70
2023-05-04T07:12:22.104Z,10.77
2023-05-04T07:14:48.761Z,10.79
2023-05-04T07:17:15.286Z,10.92
2023-05-04T07:19:42.354Z,10.97
2023-05-04T07:22:09.081Z,11.13
2023-05-04T07:24:35.549Z,11.26
2023-05-04T07:27:02.156Z,11.31
2023-05-04T07:29:28.789Z,11.37
2023-05-04T07:31:55.349Z,11.53
2023-05-04T07:34:30.480Z,11.64
2023-05-04T07:37:00.617Z,11.76
2023-05-04T07:39:27.195Z,11.87
2023-05-04T07:41:54.908Z,11.97
2023-05-04T07:44:21.468Z,12.14
2023-05-04T07:46:47.938Z,12.30
2023-05-04T07:49:14.398Z,12.44
2023-05-04T07:51:40.847Z,12.49
2023-05-04T07:54:07.307Z,12.44
2023-05-04T07:56:34.918Z,12.45
2023-05-04T07:59:01.458Z,12.51
2023-05-04T08:01:27.869Z,12.66
2023-05-04T08:03:54.337Z,12.84
2023-05-04T08:06:21.891Z,12.91
2023-05-04T08:08:51.972Z,12.83
2023-05-04T08:11:20.889Z,12.91
2023-05-04T08:13:51.028Z,13.02
2023-05-04T08:16:17.658Z,13.14
2023-05-04T08:18:44.250Z,13.23
2023-05-04T08:21:10.726Z,13.39
2023-05-04T08:23:37.317Z,13.52
2023-05-04T08:26:04.851Z,13.73
2023-05-04T08:28:39.758Z,13.69
2023-05-04T08:31:06.655Z,13.81
2023-05-04T08:33:34.109Z,13.70
2023-05-04T08:36:00.883Z,13.65
2023-05-04T08:38:27.679Z,13.88
2023-05-04T08:40:54.778Z,13.95
2023-05-04T08:43:21.244Z,14.02
2023-05-04T08:45:49.610Z,14.14
2023-05-04T08:48:16.427Z,14.29
2023-05-04T08:50:43.659Z,14.46
2023-05-04T08:53:13.406Z,14.56
2023-05-04T08:55:42.200Z,14.47
2023-05-04T08:58:11.591Z,14.48
2023-05-04T09:00:39.448Z,14.59
2023-05-04T09:03:08.989Z,14.59
2023-05-04T09:05:36.685Z,14.85
2023-05-04T09:08:03.137Z,14.84
2023-05-04T09:10:30.726Z,14.99
2023-05-04T09:12:57.280Z,14.88
2023-05-04T09:15:24.121Z,14.84
2023-05-04T09:18:05.280Z,14.75
2023-05-04T09:20:43.917Z,14.91
2023-05-04T09:23:12.176Z,14.88
2023-05-04T09:25:52.955Z,14.86
2023-05-04T09:28:21.875Z,14.76
2023-05-04T09:30:49.104Z,14.94
2023-05-04T09:33:16.359Z,15.05
2023-05-04T09:35:44.577Z,15.13
2023-05-04T09:38:11.349Z,15.23
2023-05-04T09:40:41.058Z,15.06
2023-05-04T09:43:08.592Z,15.02
2023-05-04T09:45:53.401Z,15.05
2023-05-04T09:48:26.681Z,15.15
2023-05-04T09:50:55.926Z,15.11
2023-05-04T09:53:25.197Z,15.14
2023-05-04T09:56:06.537Z,15.48
2023-05-04T09:58:34.851Z,15.61
2023-05-04T10:01:01.324Z,15.86
2023-05-04T10:03:28.630Z,16.08
2023-05-04T10:05:55.341Z,16.06
2023-05-04T10:08:23.429Z,16.10
2023-05-04T10:10:51.196Z,16.14
2023-05-04T10:13:18.044Z,16.11
2023-05-04T10:16:08.799Z,15.95
2023-05-04T10:18:57.386Z,16.19
2023-05-04T10:21:38.939Z,16.46
2023-05-04T10:24:08.414Z,16.38
2023-05-04T10:26:47.085Z,16.37
2023-05-04T10:29:25.098Z,16.36
2023-05-04T10:31:52.745Z,16.36
2023-05-04T10:34:30.398Z,16.37
2023-05-04T10:36:58.858Z,16.39
2023-05-04T10:39:27.513Z,16.45
2023-05-04T10:42:06.966Z,16.68
2023-05-04T10:44:37.396Z,16.76
2023-05-04T10:47:06.664Z,16.67
2023-05-04T10:49:34.490Z,16.66
2023-05-04T10:52:08.789Z,16.91
2023-05-04T10:54:40.746Z,17.29
2023-05-04T10:57:12.453Z,17.44
2023-05-04T10:59:40.008Z,17.47
2023-05-04T11:02:07.549Z,17.83
2023-05-04T11:04:35.005Z,17.93
2023-05-04T11:07:08.598Z,17.73
2023-05-04T11:09:37.972Z,17.69
2023-05-04T11:12:05.024Z,18.15
2023-05-04T11:14:31.697Z,18.31
2023-05-04T11:19:52.122Z,18.52
2023-05-04T11:22:18.923Z,18.86
2023-05-04T11:24:46.481Z,19.10
2023-05-04T11:27:28.483Z,19.26
2023-05-04T11:30:04.754Z,19.15
2023-05-04T11:32:46.632Z,19.11
2023-05-04T11:35:24.996Z,18.80
2023-05-04T11:37:51.671Z,18.85
2023-05-04T11:40:24.266Z,19.33
2023-05-04T11:42:53.676Z,19.22
2023-05-04T11:45:28.758Z,19.27
2023-05-04T11:47:58.936Z,19.22
2023-05-04T11:50:27.022Z,19.41
2023-05-04T11:53:13.538Z,19.04
2023-05-04T11:55:41.195Z,19.32
2023-05-04T11:58:10.001Z,19.85
2023-05-04T12:00:41.955Z,19.98
2023-05-04T12:03:12.196Z,19.63
2023-05-04T12:05:40.006Z,19.50
2023-05-04T12:08:08.854Z,19.54
2023-05-04T12:10:35.421Z,19.54
2023-05-04T12:13:02.536Z,19.99
2023-05-04T12:15:36.493Z,20.07
2023-05-04T12:18:03.594Z,20.27
2023-05-04T12:20:30.869Z,20.32
2023-05-04T12:22:58.079Z,20.17
2023-05-04T12:25:25.112Z,20.23
2023-05-04T12:27:51.910Z,19.57
2023-05-04T12:30:18.604Z,19.39
2023-05-04T12:32:45.190Z,19.55
2023-05-04T12:35:11.868Z,19.57
2023-05-04T12:37:38.345Z,19.25
2023-05-04T12:40:17.285Z,19.33
2023-05-04T12:42:53.746Z,19.52
2023-05-04T12:45:22.681Z,19.81
2023-05-04T12:47:49.298Z,20.16
2023-05-04T12:50:15.911Z,20.20
2023-05-04T12:52:42.411Z,19.63
2023-05-04T12:55:09.122Z,19.93
2023-05-04T12:57:36.119Z,19.96
2023-05-04T13:00:04.554Z,19.93
2023-05-04T13:02:31.116Z,20.03
2023-05-04T13:04:57.645Z,19.95
2023-05-04T13:07:24.183Z,19.72
2023-05-04T13:09:51.039Z,19.89
2023-05-04T13:12:17.474Z,20.01
2023-05-04T13:14:43.952Z,20.25
2023-05-04T13:17:10.372Z,20.66
2023-05-04T13:19:36.971Z,20.14
2023-05-04T13:22:03.393Z,20.21
2023-05-04T13:24:29.970Z,19.96
2023-05-04T13:26:56.539Z,20.14
2023-05-04T13:29:24.189Z,19.81
2023-05-04T13:31:50.764Z,19.65
2023-05-04T13:34:17.364Z,19.67
2023-05-04T13:36:43.832Z,19.84
2023-05-04T13:39:10.297Z,19.85
2023-05-04T13:41:37.058Z,19.53
2023-05-04T13:44:03.588Z,18.87
2023-05-04T13:46:30.038Z,18.32
2023-05-04T13:48:57.185Z,18.23
2023-05-04T13:51:23.721Z,18.69
2023-05-04T13:53:50.280Z,19.09
2023-05-04T13:56:16.693Z,19.61
2023-05-04T13:58:43.396Z,20.04
2023-05-04T14:01:10.237Z,20.55
2023-05-04T14:03:36.729Z,20.81
2023-05-04T14:06:03.267Z,20.02
2023-05-04T14:08:29.741Z,20.11
2023-05-04T14:10:56.588Z,20.22
2023-05-04T14:13:23.298Z,20.31
2023-05-04T14:15:49.799Z,20.28
2023-05-04T14:18:16.723Z,19.99
2023-05-04T14:20:43.278Z,19.99
2023-05-04T14:23:09.926Z,20.04
2023-05-04T14:25:36.384Z,19.27
2023-05-04T14:28:02.880Z,19.46
2023-05-04T14:30:29.339Z,19.49
2023-05-04T14:32:58.112Z,19.56
2023-05-04T14:35:25.142Z,19.77
2023-05-04T14:37:51.713Z,20.19
2023-05-04T14:40:18.159Z,20.80
2023-05-04T14:42:44.651Z,21.22
2023-05-04T14:45:11.594Z,21.25
2023-05-04T14:47:38.120Z,21.02
2023-05-04T14:50:07.132Z,20.06
2023-05-04T14:52:34.109Z,20.20
2023-05-04T14:55:00.574Z,19.93
2023-05-04T14:57:27.543Z,20.39
2023-05-04T14:59:54.003Z,21.12
2023-05-04T15:02:20.895Z,21.66
2023-05-04T15:04:47.408Z,21.54
2023-05-04T15:07:18.574Z,21.50
2023-05-04T15:09:44.975Z,21.08
2023-05-04T15:12:11.681Z,20.30
2023-05-04T15:14:38.379Z,19.76
2023-05-04T15:17:05.204Z,19.63
2023-05-04T15:19:31.652Z,19.36
2023-05-04T15:21:58.139Z,19.54
2023-05-04T15:24:24.629Z,19.44
2023-05-04T15:26:51.395Z,19.49
2023-05-04T15:29:17.836Z,19.49
2023-05-04T15:31:44.391Z,19.45
2023-05-04T15:34:10.920Z,19.13
2023-05-04T15:36:37.409Z,18.99
2023-05-04T15:39:05.457Z,18.88
2023-05-04T15:41:31.968Z,18.75
2023-05-04T15:43:58.551Z,19.02
2023-05-04T15:46:25.034Z,19.19
2023-05-04T15:48:51.765Z,19.66
2023-05-04T15:51:18.785Z,19.83
2023-05-04T15:53:45.440Z,19.50
2023-05-04T15:56:13.178Z,19.35
2023-05-04T15:58:39.677Z,19.19
2023-05-04T16:01:09.253Z,19.15
2023-05-04T16:03:37.347Z,19.02
2023-05-04T16:06:05.496Z,19.20
2023-05-04T16:08:32.225Z,19.17
2023-05-04T16:10:58.673Z,18.99
2023-05-04T16:13:25.301Z,19.10
2023-05-04T16:15:51.843Z,18.99
2023-05-04T16:18:18.592Z,19.05
2023-05-04T16:20:46.162Z,18.52
2023-05-04T16:23:14.723Z,18.20
2023-05-04T16:25:41.805Z,18.01
2023-05-04T16:28:08.825Z,18.03
2023-05-04T16:30:35.494Z,17.92
2023-05-04T16:33:02.130Z,17.72
2023-05-04T16:35:30.506Z,17.52
2023-05-04T16:37:57.611Z,17.38
2023-05-04T16:40:24.048Z,17.36
2023-05-04T16:42:51.019Z,17.46
2023-05-04T16:45:17.533Z,17.46
2023-05-04T16:47:44.347Z,17.50
2023-05-04T16:50:11.914Z,17.30
2023-05-04T16:52:41.516Z,17.31
2023-05-04T16:55:11.569Z,17.00
2023-05-04T16:57:39.271Z,16.81
2023-05-04T17:00:07.205Z,16.88
2023-05-04T17:02:34.747Z,16.77
2023-05-04T17:05:01.535Z,16.79
2023-05-04T17:07:28.481Z,16.91
2023-05-04T17:09:54.921Z,16.91
2023-05-04T17:12:23.195Z,16.88
2023-05-04T17:14:49.782Z,16.62
2023-05-04T17:17:16.235Z,16.50
2023-05-04T17:19:42.719Z,16.23
2023-05-04T17:22:09.293Z,16.27
2023-05-04T17:24:35.706Z,16.22
2023-05-04T17:27:03.290Z,16.19
2023-05-04T17:29:29.935Z,16.07
2023-05-04T17:31:56.446Z,16.09
2023-05-04T17:34:23.088Z,15.99
2023-05-04T17:36:49.537Z,15.81
2023-05-04T17:39:18.594Z,15.73
2023-05-04T17:41:48.854Z,15.55
2023-05-04T17:44:16.318Z,15.33
2023-05-04T17:46:43.514Z,15.33
2023-05-04T17:49:10.162Z,15.15
2023-05-04T17:51:36.641Z,15.03
2023-05-04T17:54:03.181Z,15.22
2023-05-04T17:56:29.792Z,15.05
2023-05-04T17:58:56.200Z,14.94
2023-05-04T18:01:22.685Z,14.72
2023-05-04T18:03:49.232Z,14.81
2023-05-04T18:06:16.388Z,14.73
2023-05-04T18:08:42.979Z,14.64
2023-05-04T18:11:09.443Z,14.51
2023-05-04T18:13:35.897Z,14.42
2023-05-04T18:16:02.475Z,14.34
2023-05-04T18:18:28.964Z,14.23
2023-05-04T18:20:58.039Z,14.12
2023-05-04T18:23:24.501Z,14.01
2023-05-04T18:25:51.337Z,14.07
2023-05-04T18:28:18.048Z,13.97
2023-05-04T18:30:44.597Z,13.86
2023-05-04T18:33:11.081Z,13.83
2023-05-04T18:35:37.681Z,13.70
2023-05-04T18:38:04.124Z,13.62
2023-05-04T18:40:31.919Z,13.39
2023-05-04T18:42:58.404Z,13.40
2023-05-04T18:45:25.392Z,13.34
2023-05-04T18:47:51.927Z,13.28
2023-05-04T18:50:18.534Z,13.29
2023-05-04T18:52:44.966Z,13.27
2023-05-04T18:55:11.641Z,13.19
2023-05-04T18:57:38.131Z,13.10
2023-05-04T19:00:06.672Z,13.08
2023-05-04T19:02:33.544Z,13.02
2023-05-04T19:05:00.001Z,12.94
2023-05-04T19:07:26.432Z,12.85
2023-05-04T19:09:53.186Z,12.83
2023-05-04T19:12:20.022Z,12.86
2023-05-04T19:14:46.885Z,12.76
2023-05-04T19:17:14.677Z,12.63
2023-05-04T19:19:41.174Z,12.64
2023-05-04T19:22:07.668Z,12.63
2023-05-04T19:24:37.665Z,12.66
2023-05-04T19:27:04.335Z,12.55
2023-05-04T19:29:30.903Z,12.46
2023-05-04T19:31:59.565Z,12.49
2023-05-04T19:34:27.896Z,12.53
2023-05-04T19:36:54.339Z,12.43
2023-05-04T19:39:21.973Z,12.45
2023-05-04T19:41:48.988Z,12.39
2023-05-04T19:44:15.497Z,12.30
2023-05-04T19:46:42.610Z,12.32
2023-05-04T19:49:09.050Z,12.18
2023-05-04T19:51:35.637Z,12.24
2023-05-04T19:54:02.138Z,12.18
2023-05-04T19:56:28.725Z,12.17
2023-05-04T19:58:55.228Z,12.18
2023-05-04T20:01:22.912Z,12.05
2023-05-04T20:03:49.426Z,12.12
2023-05-04T20:06:16.034Z,12.10
2023-05-04T20:08:42.484Z,12.04
2023-05-04T20:11:08.941Z,12.05
2023-05-04T20:13:36.840Z,11.86
2023-05-04T20:16:04.329Z,11.80
2023-05-04T20:18:30.844Z,11.85
2023-05-04T20:20:57.782Z,11.95
2023-05-04T20:23:24.175Z,11.88
2023-05-04T20:25:51.403Z,11.87
2023-05-04T20:28:17.846Z,11.95
2023-05-04T20:30:46.136Z,11.99
2023-05-04T20:33:12.656Z,11.96
2023-05-04T20:35:42.369Z,11.92
2023-05-04T20:38:09.080Z,11.83
2023-05-04T20:40:35.544Z,11.84
2023-05-04T20:43:01.964Z,11.87
2023-05-04T20:45:29.935Z,11.80
2023-05-04T20:47:56.710Z,11.79
2023-05-04T20:50:23.287Z,11.70
2023-05-04T20:52:50.080Z,11.73
2023-05-04T20:55:16.639Z,11.71
2023-05-04T20:57:43.269Z,11.73
2023-05-04T21:00:11.246Z,11.72
2023-05-04T21:02:37.745Z,11.71
2023-05-04T21:05:04.526Z,11.67
2023-05-04T21:07:31.262Z,11.62
2023-05-04T21:09:58.460Z,11.56
2023-05-04T21:12:25.745Z,11.56
2023-05-04T21:14:52.542Z,11.65
2023-05-04T21:17:18.955Z,11.59
2023-05-04T21:19:45.629Z,11.57
2023-05-04T21:22:12.341Z,11.57
2023-05-04T21:24:38.990Z,11.52
2023-05-04T21:27:05.450Z,11.58
2023-05-04T21:29:32.043Z,11.49
2023-05-04T21:31:58.552Z,11.47
2023-05-04T21:34:25.280Z,11.46
2023-05-04T21:36:51.818Z,11.44
2023-05-04T21:39:18.320Z,11.38
2023-05-04T21:41:44.787Z,11.33
2023-05-04T21:44:11.490Z,11.26
2023-05-04T21:46:37.972Z,11.20
2023-05-04T21:49:04.435Z,11.23
2023-05-04T21:51:31.583Z,11.19
2023-05-04T21:53:58.042Z,11.11
2023-05-04T21:56:24.485Z,11.08
2023-05-04T21:58:51.044Z,11.11
2023-05-04T22:01:17.723Z,11.22
2023-05-04T22:03:45.232Z,11.12
2023-05-04T22:06:11.926Z,11.17
2023-05-04T22:08:38.450Z,11.19
2023-05-04T22:11:05.895Z,11.11
2023-05-04T22:13:32.511Z,11.06
2023-05-04T22:15:58.926Z,11.08
2023-05-04T22:18:25.459Z,11.07
2023-05-04T22:20:51.885Z,11.03
2023-05-04T22:23:18.595Z,11.07
2023-05-04T22:25:44.995Z,11.12
2023-05-04T22:28:11.837Z,11.06
2023-05-04T22:30:39.473Z,11.04
2023-05-04T22:33:06.317Z,11.07
2023-05-04T22:35:32.982Z,11.04
2023-05-04T22:37:59.564Z,11.07
2023-05-04T22:40:25.985Z,11.05
2023-05-04T22:42:52.577Z,11.00
2023-05-04T22:45:19.167Z,11.05
2023-05-04T22:47:46.852Z,11.03
2023-05-04T22:50:13.580Z,10.99
2023-05-04T22:52:40.465Z,11.05
2023-05-04T22:55:08.258Z,11.02
2023-05-04T22:57:35.049Z,11.02
2023-05-04T23:00:01.702Z,11.02
2023-05-04T23:02:28.412Z,11.08
2023-05-04T23:04:55.333Z,10.97
2023-05-04T23:07:21.772Z,10.99
2023-05-04T23:09:48.447Z,10.92
2023-05-04T23:12:15.479Z,10.92
2023-05-04T23:14:42.279Z,10.95
2023-05-04T23:17:09.531Z,10.89
2023-05-04T23:19:36.292Z,10.86
2023-05-04T23:22:02.729Z,10.79
2023-05-04T23:24:29.213Z,10.78
2023-05-04T23:26:55.629Z,10.86
2023-05-04T23:29:22.327Z,10.82
2023-05-04T23:31:48.753Z,10.74
2023-05-04T23:34:15.434Z,10.67
2023-05-04T23:36:41.882Z,10.73
2023-05-04T23:39:08.725Z,10.71
2023-05-04T23:41:35.204Z,10.68
2023-05-04T23:44:02.026Z,10.63
2023-05-04T23:46:28.484Z,10.57
2023-05-04T23:48:56.155Z,10.57
2023-05-04T23:51:22.588Z,10.56
2023-05-04T23:53:49.122Z,10.46
2023-05-04T23:56:15.638Z,10.48
2023-05-04T23:58:42.384Z,10.48
